Time;durP1;ratioP1;P1;durP2;ratioP2;P2;SDS_P1;SDS_P2;PMS_P1;PMS_P2;Temp;Humidity;BMP_temperature;BMP_pressure;BME280_temperature;BME280_humidity;BME280_pressure;Samples;Min_cycle;Max_cycle;Signal;HPM_P1;HPM_P2
2023/10/15 00:01:26;;;;;;;3.20;2.80;;;;;;;10.19;93.97;98381.78;4176150;28;20667;-85
2023/10/15 00:03:33;;;;;;;4.90;2.90;;;;;;;10.16;93.21;98388.03;4153211;28;20680;-85
2023/10/15 00:05:36;;;;;;;3.53;2.87;;;;;;;10.13;93.33;98388.25;4176976;28;20624;-85
2023/10/15 00:07:39;;;;;;;4.27;3.43;;;;;;;10.10;92.73;98395.38;4191161;28;20643;-85
2023/10/15 00:09:43;;;;;;;4.47;3.57;;;;;;;10.08;92.73;98390.28;4171575;28;20644;-85
2023/10/15 00:11:46;;;;;;;3.93;3.27;;;;;;;10.04;92.51;98391.41;4171523;28;20657;-85
2023/10/15 00:13:49;;;;;;;4.20;3.17;;;;;;;10.01;93.00;98385.53;4171400;28;20667;-85
2023/10/15 00:15:56;;;;;;;4.40;3.20;;;;;;;10.00;92.32;98397.72;4173415;28;20633;-85
2023/10/15 00:18:01;;;;;;;2.93;2.60;;;;;;;9.96;92.59;98396.22;4183500;28;20727;-85
2023/10/15 00:20:10;;;;;;;4.20;3.20;;;;;;;9.96;93.28;98388.41;4173671;28;20625;-85
2023/10/15 00:22:14;;;;;;;3.73;2.90;;;;;;;9.96;94.09;98385.81;4171094;28;20616;-85
2023/10/15 00:24:17;;;;;;;3.80;2.70;;;;;;;9.94;93.78;98392.91;4157019;28;20636;-85
2023/10/15 00:26:21;;;;;;;3.67;2.97;;;;;;;10.00;93.86;98400.34;4173810;28;20625;-85
2023/10/15 00:28:29;;;;;;;5.20;3.33;;;;;;;9.99;94.21;98390.00;4200921;28;20638;-85
2023/10/15 00:30:32;;;;;;;3.83;3.43;;;;;;;10.01;94.77;98391.59;4173006;28;20660;-85
2023/10/15 00:32:38;;;;;;;4.57;2.80;;;;;;;9.99;94.35;98387.41;4166364;28;20644;-85
2023/10/15 00:34:40;;;;;;;4.03;2.50;;;;;;;9.94;94.40;98385.09;4174965;28;20643;-85
2023/10/15 00:36:48;;;;;;;3.27;2.90;;;;;;;9.97;94.40;98392.72;4190034;28;20757;-85
2023/10/15 00:38:51;;;;;;;4.13;3.03;;;;;;;9.97;94.36;98382.28;4157776;28;20754;-85
2023/10/15 00:41:00;;;;;;;3.60;2.40;;;;;;;9.92;93.70;98384.31;4156537;28;20661;-85
2023/10/15 00:43:05;;;;;;;6.10;3.03;;;;;;;9.87;94.08;98385.50;4191058;28;20627;-85
2023/10/15 00:45:10;;;;;;;3.70;2.80;;;;;;;9.86;93.68;98376.88;4167108;28;21229;-85
2023/10/15 00:47:15;;;;;;;3.53;2.60;;;;;;;9.85;94.21;98380.41;4171950;28;20760;-85
2023/10/15 00:49:19;;;;;;;3.20;2.57;;;;;;;9.85;94.33;98369.97;4186045;28;20663;-85
2023/10/15 00:51:23;;;;;;;3.47;2.60;;;;;;;9.85;93.88;98364.75;4174785;28;21073;-85
2023/10/15 00:53:29;;;;;;;3.20;2.50;;;;;;;9.83;93.95;98368.38;4188647;28;20743;-85
2023/10/15 00:55:35;;;;;;;4.67;2.77;;;;;;;9.87;93.70;98362.91;4186291;28;20686;-85
2023/10/15 00:57:42;;;;;;;3.80;2.57;;;;;;;9.90;94.67;98365.31;4172768;28;21315;-85
2023/10/15 00:59:48;;;;;;;3.97;3.20;;;;;;;9.90;94.47;98367.91;4174545;28;20640;-85
2023/10/15 01:02:03;;;;;;;3.60;2.90;;;;;;;9.92;94.62;98363.47;4173819;28;20639;-85
2023/10/15 01:04:07;;;;;;;3.87;2.90;;;;;;;9.92;95.16;98366.06;4172048;28;20202;-85
2023/10/15 01:06:13;;;;;;;3.00;2.70;;;;;;;9.89;95.07;98363.66;4169885;28;21190;-85
2023/10/15 01:08:17;;;;;;;6.33;3.73;;;;;;;9.90;94.96;98356.66;4173640;28;21062;-85
2023/10/15 01:10:36;;;;;;;4.57;3.50;;;;;;;9.90;95.35;98361.88;4208948;28;20687;-85
2023/10/15 01:12:40;;;;;;;4.67;2.67;;;;;;;9.87;95.15;98362.91;4155278;28;21046;-85
2023/10/15 01:14:44;;;;;;;6.75;3.60;;;;;;;9.86;95.09;98353.44;4157658;28;20645;-85
2023/10/15 01:16:48;;;;;;;3.70;3.33;;;;;;;9.85;95.37;98356.94;4179800;28;20300;-85
2023/10/15 01:18:57;;;;;;;5.10;3.47;;;;;;;9.84;95.20;98355.28;4154749;28;20640;-85
2023/10/15 01:21:04;;;;;;;4.20;3.60;;;;;;;9.86;95.85;98357.78;4152128;28;20732;-85
2023/10/15 01:23:08;;;;;;;2.93;2.73;;;;;;;9.89;95.83;98355.84;4167743;28;20737;-85
2023/10/15 01:25:24;;;;;;;4.20;2.90;;;;;;;9.90;95.68;98357.50;4176163;28;20750;-85
2023/10/15 01:27:30;;;;;;;3.20;2.80;;;;;;;9.93;95.58;98356.47;4207165;28;20735;-85
2023/10/15 01:29:33;;;;;;;3.50;2.97;;;;;;;9.89;95.42;98347.16;4170536;28;21032;-85
2023/10/15 01:31:41;;;;;;;4.03;3.20;;;;;;;9.90;95.74;98359.28;4166508;28;21059;-85
2023/10/15 01:33:49;;;;;;;3.67;3.27;;;;;;;9.92;95.39;98362.63;4165898;28;20662;-85
2023/10/15 01:35:54;;;;;;;3.77;3.10;;;;;;;9.91;95.55;98359.19;4187782;28;20670;-85
2023/10/15 01:38:09;;;;;;;4.57;3.17;;;;;;;9.93;94.97;98357.34;4158483;28;21004;-85
2023/10/15 01:40:36;;;;;;;3.17;2.87;;;;;;;9.93;95.24;98359.09;4160894;28;20702;-85
2023/10/15 01:42:41;;;;;;;4.10;3.70;;;;;;;9.92;95.51;98349.59;4162455;28;20665;-85
2023/10/15 01:44:47;;;;;;;3.30;2.97;;;;;;;9.93;96.01;98356.47;4161812;28;21225;-85
2023/10/15 01:47:07;;;;;;;3.47;3.03;;;;;;;9.93;95.65;98351.28;4167925;28;20670;-85
2023/10/15 01:49:16;;;;;;;3.80;2.80;;;;;;;9.93;95.47;98352.13;4178576;28;20634;-85
2023/10/15 01:51:19;;;;;;;3.30;2.83;;;;;;;9.90;95.86;98348.84;4182862;28;20627;-85
2023/10/15 01:53:25;;;;;;;3.70;3.33;;;;;;;9.91;95.59;98355.75;4154094;28;20692;-85
2023/10/15 01:55:35;;;;;;;3.90;3.30;;;;;;;9.88;95.53;98353.34;4156803;28;20644;-85
2023/10/15 01:57:46;;;;;;;3.53;3.23;;;;;;;9.85;95.79;98354.34;4192063;28;20724;-85
2023/10/15 01:59:56;;;;;;;3.47;3.17;;;;;;;9.84;95.68;98352.66;4175879;28;21094;-85
2023/10/15 02:02:01;;;;;;;3.30;2.93;;;;;;;9.84;96.44;98352.66;4172919;28;21097;-85
2023/10/15 02:04:06;;;;;;;3.30;2.90;;;;;;;9.90;96.16;98357.50;4173184;28;20636;-85
2023/10/15 02:06:10;;;;;;;3.70;3.40;;;;;;;9.91;96.90;98364.38;4176601;28;20658;-85
2023/10/15 02:08:23;;;;;;;3.63;3.00;;;;;;;9.94;96.97;98358.19;4184212;28;20636;-85
2023/10/15 02:10:29;;;;;;;3.07;2.77;;;;;;;9.97;96.49;98361.44;4155132;28;20636;-85
2023/10/15 02:12:35;;;;;;;4.13;3.53;;;;;;;9.98;96.67;98360.53;4174218;28;20750;-85
2023/10/15 02:14:41;;;;;;;3.50;3.20;;;;;;;10.03;96.02;98363.69;4178274;28;21086;-85
2023/10/15 02:16:50;;;;;;;3.45;3.15;;;;;;;10.03;96.23;98361.06;4174321;28;20643;-85
2023/10/15 02:18:53;;;;;;;3.83;3.30;;;;;;;10.03;94.92;98352.44;4189063;28;20201;-85
2023/10/15 02:21:01;;;;;;;4.40;3.40;;;;;;;10.02;96.08;98359.38;4172752;28;20636;-85
2023/10/15 02:23:05;;;;;;;4.40;3.23;;;;;;;10.03;96.15;98362.84;4166892;28;20659;-85
2023/10/15 02:25:09;;;;;;;7.40;3.27;;;;;;;10.01;96.50;98368.16;4204312;28;21333;-85
2023/10/15 02:27:17;;;;;;;6.30;3.45;;;;;;;10.02;96.18;98371.59;4151580;28;20672;-85
2023/10/15 02:29:34;;;;;;;3.30;3.00;;;;;;;10.04;96.11;98370.56;4155789;28;20573;-85
2023/10/15 02:31:43;;;;;;;4.63;3.10;;;;;;;10.04;96.87;98365.34;4156381;28;20764;-85
2023/10/15 02:33:47;;;;;;;5.63;3.10;;;;;;;10.07;96.51;98365.16;4167738;28;20665;-85
2023/10/15 02:35:54;;;;;;;4.07;3.40;;;;;;;10.08;97.49;98364.22;4188844;28;20640;-85
2023/10/15 02:37:59;;;;;;;3.63;3.33;;;;;;;10.10;96.82;98364.97;4170650;28;20643;-85
2023/10/15 02:40:12;;;;;;;3.83;3.33;;;;;;;10.11;96.70;98358.00;4188521;28;20672;-85
2023/10/15 02:42:16;;;;;;;4.00;3.40;;;;;;;10.10;96.71;98364.97;4206114;28;20639;-85
2023/10/15 02:44:20;;;;;;;3.80;3.27;;;;;;;10.08;96.92;98364.22;4174646;28;20629;-85
2023/10/15 02:46:36;;;;;;;5.17;3.73;;;;;;;10.07;96.29;98359.97;4159419;28;20633;-85
2023/10/15 02:48:41;;;;;;;3.90;3.27;;;;;;;10.06;96.61;98350.47;4191769;28;20619;-85
2023/10/15 02:50:58;;;;;;;3.27;2.70;;;;;;;10.05;96.26;98355.75;4177955;28;20636;-85
2023/10/15 02:53:04;;;;;;;3.57;3.17;;;;;;;10.04;97.07;98343.66;4178833;28;21574;-85
2023/10/15 02:55:10;;;;;;;3.80;3.40;;;;;;;10.06;96.83;98347.84;4176206;28;20635;-85
2023/10/15 02:57:15;;;;;;;5.67;3.20;;;;;;;10.08;96.47;98350.38;4161895;28;21286;-85
2023/10/15 02:59:19;;;;;;;3.57;2.80;;;;;;;10.08;96.68;98350.38;4177471;28;20649;-85
2023/10/15 03:01:24;;;;;;;3.70;3.00;;;;;;;10.08;96.48;98347.75;4170411;28;20640;-85
2023/10/15 03:03:34;;;;;;;3.90;3.17;;;;;;;10.09;97.22;98347.66;4177891;28;20677;-85
2023/10/15 03:05:46;;;;;;;3.50;2.70;;;;;;;10.12;96.75;98347.47;4175624;28;20698;-85
2023/10/15 03:07:49;;;;;;;3.43;3.00;;;;;;;10.15;97.17;98343.81;4149665;28;20648;-85
2023/10/15 03:09:56;;;;;;;4.30;2.80;;;;;;;10.17;97.10;98344.59;4171015;28;21215;-84
2023/10/15 03:12:04;;;;;;;3.80;3.40;;;;;;;10.18;97.78;98347.09;4150418;28;20688;-85
2023/10/15 03:14:09;;;;;;;4.37;3.30;;;;;;;10.19;97.22;98346.13;4187959;28;20665;-85
2023/10/15 03:16:12;;;;;;;5.63;3.03;;;;;;;10.18;97.33;98344.47;4177168;28;20632;-85
2023/10/15 03:18:21;;;;;;;4.00;3.33;;;;;;;10.22;96.91;98340.72;4208403;28;20705;-85
2023/10/15 03:20:39;;;;;;;3.40;3.10;;;;;;;10.23;96.75;98347.63;4155930;28;20625;-85
2023/10/15 03:22:44;;;;;;;3.03;2.73;;;;;;;10.23;96.37;98349.41;4191217;28;20628;-85
2023/10/15 03:24:49;;;;;;;3.60;3.07;;;;;;;10.23;97.06;98346.81;4175999;28;20649;-85
2023/10/15 03:26:56;;;;;;;4.77;2.90;;;;;;;10.24;96.70;98346.72;4176708;28;20664;-85
2023/10/15 03:29:00;;;;;;;3.60;3.20;;;;;;;10.24;97.20;98348.44;4187767;28;20640;-85
2023/10/15 03:31:03;;;;;;;3.57;3.07;;;;;;;10.19;96.88;98351.34;4188187;28;20666;-85
2023/10/15 03:33:07;;;;;;;3.60;3.30;;;;;;;10.20;97.40;98349.59;4154034;28;20658;-85
2023/10/15 03:35:17;;;;;;;6.13;3.10;;;;;;;10.22;97.60;98348.56;4174652;28;20673;-85
2023/10/15 03:37:22;;;;;;;3.40;3.00;;;;;;;10.22;97.91;98343.34;4172484;28;21271;-86
2023/10/15 03:39:25;;;;;;;4.53;3.40;;;;;;;10.25;97.96;98347.53;4173107;28;20646;-85
2023/10/15 03:41:30;;;;;;;5.00;3.20;;;;;;;10.29;97.22;98349.84;4159246;28;20740;-85
2023/10/15 03:43:35;;;;;;;3.30;3.00;;;;;;;10.31;97.83;98358.41;4160369;28;20621;-85
2023/10/15 03:45:50;;;;;;;3.80;3.17;;;;;;;10.34;97.81;98353.00;4157395;28;20641;-85
2023/10/15 03:47:54;;;;;;;4.60;3.27;;;;;;;10.35;97.51;98350.28;4156581;28;21247;-85
2023/10/15 03:50:01;;;;;;;4.87;3.47;;;;;;;10.35;97.28;98355.50;4186982;28;20628;-86
2023/10/15 03:52:08;;;;;;;3.80;2.93;;;;;;;10.37;97.32;98364.09;4189672;28;20627;-86
2023/10/15 03:54:13;;;;;;;4.87;3.17;;;;;;;10.38;97.70;98352.69;4175935;28;20660;-85
2023/10/15 03:56:18;;;;;;;3.87;2.80;;;;;;;10.39;97.17;98348.34;4187261;28;20612;-85
2023/10/15 03:58:22;;;;;;;4.13;3.03;;;;;;;10.40;96.72;98353.47;4152531;28;20634;-86
2023/10/15 04:00:35;;;;;;;4.23;2.90;;;;;;;10.40;97.26;98348.25;4168142;28;20631;-85
2023/10/15 04:02:44;;;;;;;3.67;3.00;;;;;;;10.41;97.29;98351.69;4153208;28;20686;-86
2023/10/15 04:04:56;;;;;;;3.13;2.83;;;;;;;10.41;97.09;98349.91;4168298;28;20664;-85
2023/10/15 04:07:12;;;;;;;3.97;3.10;;;;;;;10.40;96.96;98357.81;4171356;28;20633;-85
2023/10/15 04:09:17;;;;;;;4.00;3.20;;;;;;;10.40;97.58;98357.81;4171174;28;21038;-85
2023/10/15 04:11:29;;;;;;;4.23;3.80;;;;;;;10.39;97.73;98345.75;4187489;28;20739;-85
2023/10/15 04:13:32;;;;;;;4.10;2.97;;;;;;;10.40;97.99;98352.59;4149893;28;20674;-85
2023/10/15 04:15:35;;;;;;;3.97;3.53;;;;;;;10.43;97.44;98349.81;4173762;28;21012;-85
2023/10/15 04:17:38;;;;;;;3.70;2.93;;;;;;;10.44;97.81;98354.09;4170137;28;20635;-85
2023/10/15 04:19:43;;;;;;;4.77;3.27;;;;;;;10.46;97.58;98341.78;4171789;28;21067;-85
2023/10/15 04:21:47;;;;;;;3.20;2.90;;;;;;;10.45;97.61;98353.19;4171008;28;20661;-85
2023/10/15 04:23:53;;;;;;;5.33;2.60;;;;;;;10.47;97.25;98351.28;4194059;28;20627;-85
2023/10/15 04:25:59;;;;;;;3.83;2.70;;;;;;;10.47;97.99;98357.34;4173323;28;20664;-85
2023/10/15 04:28:13;;;;;;;5.10;3.13;;;;;;;10.48;98.10;98355.59;4185440;28;20635;-85
2023/10/15 04:30:17;;;;;;;3.47;2.70;;;;;;;10.49;97.92;98350.28;4174559;28;21036;-85
2023/10/15 04:32:28;;;;;;;5.33;2.90;;;;;;;10.52;97.60;98354.44;4152181;28;20710;-85
2023/10/15 04:34:33;;;;;;;3.87;3.00;;;;;;;10.52;97.70;98357.88;4164772;28;20652;-85
2023/10/15 04:36:40;;;;;;;3.83;2.90;;;;;;;10.54;97.57;98363.00;4174736;28;21022;-85
2023/10/15 04:38:43;;;;;;;5.17;2.90;;;;;;;10.53;97.84;98359.56;4203795;28;20642;-85
2023/10/15 04:41:00;;;;;;;5.60;2.77;;;;;;;10.53;98.73;98353.50;4170286;28;21285;-85
2023/10/15 04:43:05;;;;;;;4.50;2.50;;;;;;;10.54;97.66;98360.38;4174513;28;20618;-85
2023/10/15 04:45:21;;;;;;;6.60;2.83;;;;;;;10.54;97.55;98355.16;4167682;28;20633;-85
2023/10/15 04:47:28;;;;;;;4.80;2.90;;;;;;;10.53;98.19;98356.94;4165736;28;20844;-85
2023/10/15 04:49:31;;;;;;;3.70;2.80;;;;;;;10.54;98.44;98357.78;4151226;28;20722;-85
2023/10/15 04:51:42;;;;;;;3.40;2.67;;;;;;;10.54;97.97;98361.25;4175478;28;21200;-85
2023/10/15 04:53:48;;;;;;;3.90;2.57;;;;;;;10.55;98.84;98354.25;4174141;28;20751;-85
2023/10/15 04:55:53;;;;;;;3.80;2.70;;;;;;;10.55;97.45;98355.06;4205163;28;20623;-85
2023/10/15 04:57:56;;;;;;;4.53;2.73;;;;;;;10.53;97.67;98354.34;4174723;28;20621;-86
2023/10/15 05:00:01;;;;;;;3.40;2.60;;;;;;;10.52;98.19;98354.44;4189652;28;20697;-85
2023/10/15 05:02:04;;;;;;;3.67;2.60;;;;;;;10.53;97.86;98354.34;4186216;28;20638;-85
2023/10/15 05:04:09;;;;;;;11.60;3.13;;;;;;;10.52;97.51;98351.81;4186071;28;20643;-85
2023/10/15 05:06:12;;;;;;;5.63;2.70;;;;;;;10.50;97.43;98351.94;4171086;28;20632;-85
2023/10/15 05:08:17;;;;;;;2.80;2.60;;;;;;;10.49;98.37;98352.88;4172196;28;20636;-85
2023/10/15 05:10:20;;;;;;;3.43;2.60;;;;;;;10.50;97.61;98349.31;4171104;28;21206;-85
2023/10/15 05:12:24;;;;;;;3.60;2.70;;;;;;;10.52;97.88;98341.41;4174068;28;20634;-85
2023/10/15 05:14:27;;;;;;;4.87;3.10;;;;;;;10.51;97.71;98344.97;4158969;28;20653;-85
2023/10/15 05:16:33;;;;;;;3.20;2.67;;;;;;;10.53;97.78;98350.91;4173082;28;21042;-85
2023/10/15 05:18:36;;;;;;;4.50;2.73;;;;;;;10.53;97.83;98353.50;4173477;28;20640;-85
2023/10/15 05:20:39;;;;;;;2.87;2.50;;;;;;;10.52;98.36;98352.66;4173420;28;20644;-85
2023/10/15 05:22:43;;;;;;;4.03;3.20;;;;;;;10.55;97.93;98356.84;4173641;28;20625;-85
2023/10/15 05:24:46;;;;;;;3.10;2.47;;;;;;;10.54;98.68;98357.78;4154825;28;20626;-85
2023/10/15 05:26:49;;;;;;;4.40;2.97;;;;;;;10.52;98.10;98354.44;4203374;28;20657;-85
2023/10/15 05:28:52;;;;;;;3.57;2.80;;;;;;;10.54;98.64;98353.41;4154888;28;20687;-85
2023/10/15 05:30:57;;;;;;;4.17;2.80;;;;;;;10.58;98.34;98354.03;4173990;28;20668;-85
2023/10/15 05:33:02;;;;;;;5.50;2.90;;;;;;;10.58;98.90;98356.66;4170155;28;21092;-85
2023/10/15 05:35:08;;;;;;;5.47;2.77;;;;;;;10.57;99.85;98360.19;4188229;28;21079;-85
2023/10/15 05:37:11;;;;;;;4.00;2.93;;;;;;;10.58;99.48;98359.25;4166748;28;20625;-85
2023/10/15 05:39:16;;;;;;;3.47;2.37;;;;;;;10.60;99.31;98367.81;4204166;28;20720;-85
2023/10/15 05:41:23;;;;;;;6.67;2.93;;;;;;;10.62;98.90;98377.22;4153284;28;20626;-85
2023/10/15 05:43:28;;;;;;;4.47;2.73;;;;;;;10.64;99.50;98371.91;4156794;28;21040;-85
2023/10/15 05:45:32;;;;;;;4.13;2.67;;;;;;;10.67;99.65;98374.31;4189660;28;20726;-85
2023/10/15 05:47:35;;;;;;;4.47;2.70;;;;;;;10.68;99.60;98383.84;4172170;28;20645;-85
2023/10/15 05:49:40;;;;;;;3.80;3.40;;;;;;;10.67;99.32;98380.38;4175807;28;20678;-85
2023/10/15 05:51:44;;;;;;;4.07;3.30;;;;;;;10.67;99.59;98390.81;4167256;28;20647;-85
2023/10/15 05:53:47;;;;;;;4.03;2.70;;;;;;;10.69;99.02;98395.91;4178423;28;21023;-83
2023/10/15 05:55:50;;;;;;;2.70;2.43;;;;;;;10.69;98.68;98402.00;4172160;28;21337;-83
2023/10/15 05:57:54;;;;;;;3.93;2.93;;;;;;;10.68;98.83;98409.91;4177282;28;20632;-83
2023/10/15 05:59:57;;;;;;;6.30;3.63;;;;;;;10.66;99.38;98407.41;4186673;28;21026;-83
2023/10/15 06:02:00;;;;;;;3.67;3.20;;;;;;;10.69;99.96;98406.34;4169576;28;20659;-83
2023/10/15 06:04:04;;;;;;;4.27;3.50;;;;;;;10.72;99.07;98390.50;4174196;28;20636;-82
2023/10/15 06:06:08;;;;;;;4.90;3.70;;;;;;;10.68;99.03;98391.66;4163774;28;20649;-83
2023/10/15 06:08:12;;;;;;;5.57;3.50;;;;;;;10.70;98.60;98414.09;4189273;28;20681;-83
2023/10/15 06:10:16;;;;;;;4.30;3.30;;;;;;;10.69;99.83;98407.22;4171669;28;20702;-83
2023/10/15 06:12:20;;;;;;;6.17;4.30;;;;;;;10.69;99.91;98417.66;4172819;28;21221;-83
2023/10/15 06:14:28;;;;;;;4.47;3.83;;;;;;;10.69;100.00;98422.88;4172604;28;20652;-83
2023/10/15 06:16:31;;;;;;;3.77;3.37;;;;;;;10.72;100.00;98427.03;4171892;28;20695;-83
2023/10/15 06:18:34;;;;;;;4.63;3.90;;;;;;;10.75;100.00;98429.44;4178001;28;20632;-83
2023/10/15 06:20:38;;;;;;;4.77;3.50;;;;;;;10.76;100.00;98423.31;4171521;28;20632;-83
2023/10/15 06:22:43;;;;;;;5.40;3.30;;;;;;;10.78;99.29;98414.44;4174667;28;20624;-83
2023/10/15 06:24:47;;;;;;;5.70;3.20;;;;;;;10.81;99.21;98412.47;4170039;28;21100;-83
2023/10/15 06:26:50;;;;;;;4.27;3.50;;;;;;;10.85;99.65;98423.53;4156806;28;20636;-83
2023/10/15 06:28:54;;;;;;;4.00;2.50;;;;;;;10.90;98.98;98417.09;4158287;28;20617;-83
2023/10/15 06:30:57;;;;;;;4.20;3.47;;;;;;;10.94;99.41;98426.38;4188288;28;20749;-83
2023/10/15 06:33:00;;;;;;;4.57;3.20;;;;;;;10.98;99.01;98427.88;4171518;28;20663;-83
2023/10/15 06:35:03;;;;;;;4.33;3.00;;;;;;;11.05;100.00;98430.91;4173637;28;20665;-83
2023/10/15 06:37:08;;;;;;;3.80;2.90;;;;;;;11.12;100.00;98438.25;4156727;28;20713;-83
2023/10/15 06:39:12;;;;;;;4.63;3.07;;;;;;;11.20;98.79;98429.94;4160013;28;21020;-83
2023/10/15 06:41:15;;;;;;;6.20;2.93;;;;;;;11.27;98.51;98434.66;4174236;28;20633;-83
2023/10/15 06:43:19;;;;;;;8.27;2.97;;;;;;;11.31;98.30;98438.75;4204804;28;20629;-83
2023/10/15 06:45:21;;;;;;;3.57;2.80;;;;;;;11.33;99.39;98442.06;4175740;28;20686;-83
2023/10/15 06:47:25;;;;;;;3.47;2.60;;;;;;;11.39;99.58;98437.28;4172834;28;20657;-83
2023/10/15 06:49:28;;;;;;;4.60;3.30;;;;;;;11.47;99.37;98447.25;4154579;28;21192;-83
2023/10/15 06:51:31;;;;;;;6.13;3.17;;;;;;;11.56;99.27;98449.25;4173102;28;20629;-83
2023/10/15 06:53:35;;;;;;;6.17;3.30;;;;;;;11.62;98.93;98451.47;4172559;28;20640;-83
2023/10/15 06:55:40;;;;;;;6.07;2.70;;;;;;;11.65;99.16;98452.13;4208171;28;20639;-83
2023/10/15 06:57:42;;;;;;;3.50;2.83;;;;;;;11.73;99.04;98462.03;4176585;28;20628;-83
2023/10/15 06:59:45;;;;;;;4.50;3.57;;;;;;;11.79;97.62;98458.06;4176975;28;20670;-85
2023/10/15 07:01:48;;;;;;;5.37;3.10;;;;;;;11.87;97.21;98465.41;4174544;28;20633;-84
2023/10/15 07:03:52;;;;;;;5.00;3.43;;;;;;;11.86;97.58;98469.81;4169859;28;20636;-84
2023/10/15 07:05:54;;;;;;;5.30;3.47;;;;;;;11.86;97.12;98464.56;4175014;28;20660;-84
2023/10/15 07:07:58;;;;;;;5.57;3.10;;;;;;;11.86;97.20;98461.97;4171846;28;20632;-84
2023/10/15 07:10:05;;;;;;;6.73;3.90;;;;;;;11.91;97.51;98477.34;4172035;28;21003;-85
2023/10/15 07:12:10;;;;;;;7.03;3.63;;;;;;;11.95;96.33;98469.19;4191452;28;20616;-85
2023/10/15 07:14:14;;;;;;;6.10;3.33;;;;;;;11.97;96.37;98472.53;4171065;28;20675;-84
2023/10/15 07:16:19;;;;;;;6.80;3.80;;;;;;;11.98;94.03;98474.19;4170928;28;20672;-84
2023/10/15 07:18:23;;;;;;;4.30;3.23;;;;;;;12.06;96.50;98471.06;4178796;28;20628;-84
2023/10/15 07:20:27;;;;;;;5.33;3.50;;;;;;;12.13;95.10;98467.91;4184192;28;20664;-84
2023/10/15 07:22:31;;;;;;;5.60;3.83;;;;;;;12.30;95.27;98473.66;4166827;28;20735;-84
2023/10/15 07:24:34;;;;;;;7.97;4.43;;;;;;;12.35;95.46;98484.63;4176634;28;20639;-84
2023/10/15 07:26:39;;;;;;;6.47;4.47;;;;;;;12.40;94.14;98476.47;4180159;28;20632;-84
2023/10/15 07:28:43;;;;;;;5.33;3.80;;;;;;;12.41;94.25;98475.53;4177731;28;20677;-85
2023/10/15 07:30:49;;;;;;;8.50;3.80;;;;;;;12.46;95.52;98483.91;4151042;28;21010;-84
2023/10/15 07:32:57;;;;;;;5.50;3.60;;;;;;;12.48;96.09;98482.00;4190077;28;20644;-84
2023/10/15 07:35:01;;;;;;;4.63;3.03;;;;;;;12.52;95.40;98486.09;4186537;28;20675;-83
2023/10/15 07:37:04;;;;;;;4.73;3.57;;;;;;;12.51;95.28;98484.41;4171792;28;20640;-84
2023/10/15 07:39:08;;;;;;;4.30;3.33;;;;;;;12.52;95.95;98481.69;4148567;28;20657;-86
2023/10/15 07:41:11;;;;;;;7.23;3.80;;;;;;;12.51;94.86;98481.78;4170267;28;20753;-90
2023/10/15 07:43:14;;;;;;;5.60;4.53;;;;;;;12.52;96.59;98478.22;4173068;28;20732;-85
2023/10/15 07:45:20;;;;;;;4.17;3.70;;;;;;;12.47;95.89;98477.72;4170105;28;20651;-90
2023/10/15 07:47:24;;;;;;;5.53;3.67;;;;;;;12.42;94.97;98482.44;4166130;28;20644;-86
2023/10/15 07:49:28;;;;;;;8.27;4.67;;;;;;;12.39;96.60;98485.28;4179511;28;20640;-89
2023/10/15 07:51:31;;;;;;;8.17;4.33;;;;;;;12.41;95.37;98486.81;4152944;28;20960;-91
2023/10/15 07:53:35;;;;;;;5.80;4.13;;;;;;;12.41;95.62;98486.81;4176615;28;20638;-93
2023/10/15 07:55:38;;;;;;;8.27;4.27;;;;;;;12.45;95.76;98485.69;4164398;28;20656;-92
2023/10/15 07:57:42;;;;;;;6.43;3.63;;;;;;;12.48;95.55;98488.09;4194454;28;20988;-93
2023/10/15 07:59:45;;;;;;;7.47;5.47;;;;;;;12.55;96.42;98491.09;4161885;28;20645;-93
2023/10/15 08:01:50;;;;;;;9.60;5.30;;;;;;;12.61;96.54;98493.28;4176948;28;20637;-93
2023/10/15 08:03:55;;;;;;;7.77;4.87;;;;;;;12.66;95.55;98489.44;4161053;28;20700;-92
2023/10/15 08:06:02;;;;;;;6.63;4.73;;;;;;;12.90;97.00;98498.16;4169458;28;20633;-91
2023/10/15 08:08:06;;;;;;;6.40;3.23;;;;;;;13.03;96.29;98498.97;4192360;28;20676;-91
2023/10/15 08:10:10;;;;;;;6.20;4.23;;;;;;;13.08;94.46;98495.09;4174057;28;20689;-91
2023/10/15 08:12:13;;;;;;;8.80;5.30;;;;;;;13.19;95.67;98495.16;4165297;28;20655;-89
2023/10/15 08:14:19;;;;;;;6.43;4.07;;;;;;;13.49;95.61;98499.00;4186562;28;20653;-89
2023/10/15 08:16:23;;;;;;;5.00;3.73;;;;;;;13.62;94.10;98491.91;4174594;28;20650;-89
2023/10/15 08:18:27;;;;;;;8.27;4.20;;;;;;;13.84;94.21;98489.34;4177527;28;20639;-89
2023/10/15 08:20:31;;;;;;;4.37;3.47;;;;;;;13.93;93.09;98491.28;4173821;28;20626;-89
2023/10/15 08:22:35;;;;;;;9.90;6.63;;;;;;;13.95;92.16;98502.50;4204459;28;20619;-89
2023/10/15 08:24:39;;;;;;;6.30;3.27;;;;;;;14.00;92.37;98498.56;4182637;28;21260;-86
2023/10/15 08:26:42;;;;;;;6.00;2.80;;;;;;;13.88;91.25;98490.81;4191832;28;20652;-90
2023/10/15 08:28:48;;;;;;;6.80;2.70;;;;;;;13.77;90.97;98488.13;4204202;28;20671;-89
2023/10/15 08:30:54;;;;;;;4.87;2.50;;;;;;;13.65;91.61;98495.13;4174826;28;20696;-90
2023/10/15 08:32:58;;;;;;;9.13;4.40;;;;;;;13.76;92.59;98492.53;4179055;28;21074;-89
2023/10/15 08:35:03;;;;;;;5.80;3.50;;;;;;;13.98;92.69;98497.00;4177133;28;21203;-90
2023/10/15 08:37:07;;;;;;;5.73;3.60;;;;;;;14.07;91.35;98499.81;4173877;28;20666;-90
2023/10/15 08:39:10;;;;;;;6.37;3.60;;;;;;;14.36;90.36;98503.69;4174118;28;20656;-89
2023/10/15 08:41:16;;;;;;;6.57;3.70;;;;;;;14.58;90.20;98495.81;4175366;28;20645;-90
2023/10/15 08:43:21;;;;;;;5.77;2.80;;;;;;;14.59;86.01;98494.88;4170753;28;21403;-89
2023/10/15 08:45:24;;;;;;;3.87;3.13;;;;;;;14.45;86.85;98489.84;4158088;28;20715;-88
2023/10/15 08:47:28;;;;;;;6.57;3.67;;;;;;;14.31;86.68;98492.69;4187921;28;20636;-90
2023/10/15 08:49:35;;;;;;;9.70;4.00;;;;;;;14.21;86.13;98483.88;4190658;28;20634;-88
2023/10/15 08:51:40;;;;;;;5.40;3.23;;;;;;;14.11;86.08;98482.06;4169868;28;20642;-89
2023/10/15 08:53:43;;;;;;;6.47;3.40;;;;;;;13.98;86.45;98479.50;4156745;28;20630;-86
2023/10/15 08:55:47;;;;;;;7.23;3.30;;;;;;;14.10;85.48;98485.63;4164181;28;20646;-86
2023/10/15 08:57:54;;;;;;;4.87;2.57;;;;;;;14.12;85.25;98481.09;4187938;28;20628;-87
2023/10/15 08:59:58;;;;;;;5.60;2.50;;;;;;;14.48;85.42;98492.22;4171555;28;21403;-87
2023/10/15 09:02:02;;;;;;;5.60;2.60;;;;;;;14.89;85.25;98502.00;4170733;28;20961;-88
2023/10/15 09:04:06;;;;;;;5.33;2.57;;;;;;;15.23;83.75;98496.63;4153099;28;20674;-88
2023/10/15 09:06:10;;;;;;;7.90;2.40;;;;;;;15.41;81.39;98495.13;4156437;28;21078;-87
2023/10/15 09:08:17;;;;;;;4.63;2.90;;;;;;;15.50;82.04;98490.91;4170451;28;20623;-88
2023/10/15 09:10:20;;;;;;;3.40;2.20;;;;;;;15.72;81.70;98496.91;4170604;28;20625;-87
2023/10/15 09:12:24;;;;;;;7.80;3.40;;;;;;;15.92;81.28;98499.56;4168087;28;20638;-87
2023/10/15 09:14:42;;;;;;;6.03;2.60;;;;;;;15.95;77.94;98499.31;4169308;28;21495;-87
2023/10/15 09:16:47;;;;;;;3.63;1.90;;;;;;;15.67;76.06;98494.66;4173271;28;20705;-89
2023/10/15 09:18:52;;;;;;;3.37;1.90;;;;;;;15.55;79.75;98499.28;4201797;28;21084;-88
2023/10/15 09:20:58;;;;;;;3.70;2.23;;;;;;;15.36;79.96;98499.06;4188595;28;20641;-90
2023/10/15 09:23:02;;;;;;;7.30;2.97;;;;;;;15.09;77.69;98498.63;4176898;28;20637;-90
2023/10/15 09:25:08;;;;;;;7.50;2.37;;;;;;;14.82;79.06;98485.06;4206349;28;21049;-90
2023/10/15 09:27:11;;;;;;;4.23;2.10;;;;;;;14.59;79.76;98493.06;4150925;28;20659;-89
2023/10/15 09:29:19;;;;;;;5.77;1.93;;;;;;;14.40;80.16;98495.47;4160292;28;20686;-90
2023/10/15 09:31:25;;;;;;;4.00;2.30;;;;;;;14.25;79.78;98491.41;4171814;28;20653;-90
2023/10/15 09:33:29;;;;;;;4.87;2.47;;;;;;;14.32;82.35;98491.75;4173853;28;20667;-89
2023/10/15 09:35:31;;;;;;;4.93;2.27;;;;;;;14.50;81.36;98498.22;4170319;28;20931;-90
2023/10/15 09:37:35;;;;;;;3.20;1.90;;;;;;;14.44;79.57;98491.63;4163152;28;21287;-88
2023/10/15 09:39:39;;;;;;;6.00;2.70;;;;;;;14.36;81.62;98499.28;4164034;28;20733;-88
2023/10/15 09:41:43;;;;;;;6.43;2.87;;;;;;;14.35;82.71;98497.59;4166417;28;20631;-89
2023/10/15 09:43:48;;;;;;;4.57;2.20;;;;;;;14.23;79.64;98490.66;4201301;28;20704;-89
2023/10/15 09:45:54;;;;;;;3.77;1.90;;;;;;;14.18;79.06;98492.81;4171006;28;20653;-88
2023/10/15 09:47:58;;;;;;;6.53;2.20;;;;;;;14.12;80.72;98489.81;4173810;28;20675;-87
2023/10/15 09:50:06;;;;;;;5.60;1.90;;;;;;;14.11;81.21;98493.38;4168070;28;20670;-87
2023/10/15 09:52:11;;;;;;;3.50;1.40;;;;;;;14.11;80.15;98500.44;4198939;28;20620;-88